Time;durP1;ratioP1;P1;durP2;ratioP2;P2;SDS_P1;SDS_P2;PMS_P1;PMS_P2;Temp;Humidity;BMP_temperature;BMP_pressure;BME280_temperature;BME280_humidity;BME280_pressure;Samples;Min_cycle;Max_cycle;Signal;HPM_P1;HPM_P2
2023/08/09 00:02:05;;;;;;;1.73;1.38;;;;;;;;;;10149927;28;20136;-69
2023/08/09 00:06:56;;;;;;;2.65;1.70;;;;;;;;;;10162710;28;20040;-69
2023/08/09 00:11:48;;;;;;;3.00;2.00;;;;;;;;;;10166811;28;20049;-70
2023/08/09 00:16:40;;;;;;;2.00;1.30;;;;;;;;;;10164654;28;20040;-70
2023/08/09 00:21:32;;;;;;;3.72;1.58;;;;;;;;;;10150670;28;20074;-69
2023/08/09 00:26:25;;;;;;;1.77;1.33;;;;;;;;;;10164634;28;20975;-69
2023/08/09 00:31:17;;;;;;;1.80;1.50;;;;;;;;;;10165076;28;20083;-70
2023/08/09 00:36:09;;;;;;;2.45;1.40;;;;;;;;;;10149927;28;20049;-70
2023/08/09 00:41:02;;;;;;;1.17;1.08;;;;;;;;;;10164305;28;20049;-70
2023/08/09 00:45:54;;;;;;;2.88;1.50;;;;;;;;;;10167532;28;20398;-70
2023/08/09 00:50:46;;;;;;;2.72;1.58;;;;;;;;;;10161911;28;20042;-70
2023/08/09 00:55:39;;;;;;;2.67;1.33;;;;;;;;;;10185510;28;20052;-70
2023/08/09 01:00:31;;;;;;;1.65;1.48;;;;;;;;;;10175284;28;20139;-68
2023/08/09 01:05:27;;;;;;;1.67;1.27;;;;;;;;;;10152858;28;20071;-69
2023/08/09 01:10:28;;;;;;;1.75;1.38;;;;;;;;;;10161058;28;20044;-70
2023/08/09 01:15:21;;;;;;;1.67;1.38;;;;;;;;;;10171787;28;20542;-69
2023/08/09 01:20:13;;;;;;;3.13;1.50;;;;;;;;;;10157091;28;20374;-69
2023/08/09 01:25:09;;;;;;;4.00;1.23;;;;;;;;;;10154271;28;20143;-70
2023/08/09 01:30:01;;;;;;;1.88;1.50;;;;;;;;;;10177619;28;20060;-69
2023/08/09 01:34:53;;;;;;;2.10;1.67;;;;;;;;;;10162320;28;20048;-70
2023/08/09 01:39:47;;;;;;;2.67;1.55;;;;;;;;;;10160778;28;20036;-70
2023/08/09 01:44:40;;;;;;;3.08;1.30;;;;;;;;;;10155930;28;20041;-70
2023/08/09 01:49:32;;;;;;;1.52;1.10;;;;;;;;;;10163973;28;20047;-70
2023/08/09 01:54:24;;;;;;;1.50;1.25;;;;;;;;;;10151062;28;20428;-69
2023/08/09 01:59:16;;;;;;;2.40;1.38;;;;;;;;;;10149213;28;20055;-70
2023/08/09 02:04:09;;;;;;;3.17;1.70;;;;;;;;;;10149575;28;20048;-70
2023/08/09 02:09:01;;;;;;;2.70;1.30;;;;;;;;;;10165148;28;20040;-68
2023/08/09 02:13:56;;;;;;;2.40;2.20;;;;;;;;;;10152989;28;20072;-70
2023/08/09 02:18:48;;;;;;;3.97;1.13;;;;;;;;;;10147079;28;20051;-68
2023/08/09 02:23:40;;;;;;;2.33;2.13;;;;;;;;;;10160256;28;20466;-69
2023/08/09 02:28:32;;;;;;;3.30;1.52;;;;;;;;;;10150234;28;20497;-68
2023/08/09 02:33:26;;;;;;;3.10;1.63;;;;;;;;;;10146145;28;20036;-70
2023/08/09 02:38:19;;;;;;;1.65;1.20;;;;;;;;;;10149745;28;20048;-67
2023/08/09 02:43:10;;;;;;;3.00;1.20;;;;;;;;;;10144620;28;20105;-70
2023/08/09 02:48:03;;;;;;;2.10;1.10;;;;;;;;;;10142867;28;20048;-70
2023/08/09 02:52:55;;;;;;;2.95;1.17;;;;;;;;;;10143022;28;20044;-69
2023/08/09 02:57:47;;;;;;;6.47;1.98;;;;;;;;;;10144008;28;20151;-70
2023/08/09 03:02:39;;;;;;;7.75;2.28;;;;;;;;;;10145076;28;20138;-68
2023/08/09 03:07:31;;;;;;;3.75;2.15;;;;;;;;;;10146716;28;20058;-70
2023/08/09 03:12:24;;;;;;;5.53;1.92;;;;;;;;;;10145176;28;20040;-70
2023/08/09 03:17:16;;;;;;;4.30;1.75;;;;;;;;;;10146919;28;20039;-69
2023/08/09 03:22:08;;;;;;;5.30;1.90;;;;;;;;;;10145378;28;20032;-69
2023/08/09 03:27:00;;;;;;;2.47;1.83;;;;;;;;;;10144338;28;20388;-70
2023/08/09 03:31:54;;;;;;;5.72;2.28;;;;;;;;;;10146422;28;20040;-68
2023/08/09 03:36:46;;;;;;;2.67;1.85;;;;;;;;;;10146081;28;20173;-70
2023/08/09 03:41:38;;;;;;;4.55;1.80;;;;;;;;;;10150383;28;20044;-69
2023/08/09 03:46:32;;;;;;;2.60;1.88;;;;;;;;;;10146957;28;20051;-70
2023/08/09 03:51:25;;;;;;;4.30;1.70;;;;;;;;;;10156751;28;20036;-68
2023/08/09 03:56:18;;;;;;;1.85;1.40;;;;;;;;;;10142309;28;20168;-69
2023/08/09 04:01:13;;;;;;;3.25;1.83;;;;;;;;;;10154237;28;20131;-69
2023/08/09 04:06:05;;;;;;;1.67;1.40;;;;;;;;;;10146514;28;20044;-69
2023/08/09 04:10:59;;;;;;;3.05;1.50;;;;;;;;;;10148474;28;20045;-70
2023/08/09 04:15:52;;;;;;;3.58;1.55;;;;;;;;;;10184784;28;20036;-70
2023/08/09 04:20:45;;;;;;;4.05;1.60;;;;;;;;;;10175409;28;20051;-70
2023/08/09 04:25:37;;;;;;;3.33;1.20;;;;;;;;;;10175705;28;20044;-70
2023/08/09 04:30:29;;;;;;;1.77;1.30;;;;;;;;;;10180953;28;20040;-70
2023/08/09 04:35:21;;;;;;;1.65;1.27;;;;;;;;;;10183600;28;20089;-70
2023/08/09 04:40:13;;;;;;;2.35;1.30;;;;;;;;;;10159582;28;20128;-70
2023/08/09 04:45:10;;;;;;;4.72;1.60;;;;;;;;;;10167369;28;20419;-69
2023/08/09 04:50:03;;;;;;;3.03;1.83;;;;;;;;;;10161199;28;20048;-70
2023/08/09 04:54:55;;;;;;;3.67;1.83;;;;;;;;;;10181729;28;20071;-71
2023/08/09 04:59:47;;;;;;;2.38;1.30;;;;;;;;;;10157665;28;20040;-69
2023/08/09 05:04:39;;;;;;;3.85;1.20;;;;;;;;;;10149476;28;20072;-70
2023/08/09 05:09:32;;;;;;;1.38;1.27;;;;;;;;;;10144471;28;20041;-68
2023/08/09 05:14:27;;;;;;;3.97;1.40;;;;;;;;;;10151213;28;20479;-68
2023/08/09 05:19:19;;;;;;;2.38;1.38;;;;;;;;;;10150419;28;20446;-68
2023/08/09 05:24:11;;;;;;;2.42;1.60;;;;;;;;;;10150189;28;20524;-70
2023/08/09 05:29:03;;;;;;;3.17;1.60;;;;;;;;;;10152686;28;20044;-70
2023/08/09 05:33:56;;;;;;;1.30;1.20;;;;;;;;;;10165700;28;20048;-70
2023/08/09 05:38:48;;;;;;;1.92;1.75;;;;;;;;;;10163259;28;20040;-68
2023/08/09 05:43:40;;;;;;;2.17;1.75;;;;;;;;;;10149931;28;20059;-67
2023/08/09 05:48:32;;;;;;;3.20;1.88;;;;;;;;;;10150850;28;20053;-68
2023/08/09 05:53:24;;;;;;;2.47;1.95;;;;;;;;;;10148983;28;20421;-67
2023/08/09 05:58:16;;;;;;;4.68;2.42;;;;;;;;;;10150512;28;20049;-67
2023/08/09 06:03:08;;;;;;;2.55;1.70;;;;;;;;;;10149486;28;20048;-67
2023/08/09 06:08:00;;;;;;;2.63;1.80;;;;;;;;;;10146819;28;20044;-67
2023/08/09 06:12:53;;;;;;;2.58;1.70;;;;;;;;;;10167649;28;20044;-69
2023/08/09 06:17:45;;;;;;;4.43;1.52;;;;;;;;;;10152470;28;20047;-69
2023/08/09 06:22:36;;;;;;;2.38;1.30;;;;;;;;;;10174173;28;20044;-67
2023/08/09 06:27:29;;;;;;;2.47;1.67;;;;;;;;;;10168664;28;20062;-68
2023/08/09 06:32:20;;;;;;;2.00;1.33;;;;;;;;;;10178955;28;20658;-67
2023/08/09 06:37:14;;;;;;;2.78;1.92;;;;;;;;;;10149660;28;20072;-68
2023/08/09 06:42:05;;;;;;;2.35;1.48;;;;;;;;;;10158492;28;20117;-66
2023/08/09 06:46:59;;;;;;;3.03;1.52;;;;;;;;;;10172701;28;20549;-68
2023/08/09 06:51:52;;;;;;;2.67;1.70;;;;;;;;;;10179522;28;20135;-67
2023/08/09 06:56:44;;;;;;;5.75;3.50;;;;;;;;;;10170948;28;20045;-68
2023/08/09 07:01:36;;;;;;;2.38;1.52;;;;;;;;;;10143713;28;20102;-66
2023/08/09 07:06:28;;;;;;;5.15;1.80;;;;;;;;;;10155529;28;20457;-68
2023/08/09 07:11:20;;;;;;;2.47;1.80;;;;;;;;;;10147845;28;20382;-68
2023/08/09 07:16:12;;;;;;;5.55;1.98;;;;;;;;;;10147717;28;20044;-68
2023/08/09 07:21:04;;;;;;;1.70;1.50;;;;;;;;;;10184824;28;20075;-66
2023/08/09 07:25:56;;;;;;;2.20;1.65;;;;;;;;;;10181385;28;20052;-68
2023/08/09 07:30:51;;;;;;;4.10;1.70;;;;;;;;;;10147653;28;20040;-67
2023/08/09 07:35:43;;;;;;;2.97;1.80;;;;;;;;;;10159653;28;20438;-68
2023/08/09 07:40:35;;;;;;;3.38;1.80;;;;;;;;;;10183648;28;20458;-67
2023/08/09 07:45:29;;;;;;;2.70;1.65;;;;;;;;;;10174855;28;20166;-66
2023/08/09 07:50:21;;;;;;;2.35;1.67;;;;;;;;;;10153162;28;20075;-69
2023/08/09 07:55:13;;;;;;;4.38;1.67;;;;;;;;;;10141117;28;20044;-65
2023/08/09 08:00:12;;;;;;;3.80;1.67;;;;;;;;;;10153346;28;20071;-67
2023/08/09 08:05:12;;;;;;;3.72;2.00;;;;;;;;;;10154952;28;20382;-67
2023/08/09 08:10:08;;;;;;;3.00;2.13;;;;;;;;;;10160972;28;20074;-66
2023/08/09 08:15:00;;;;;;;6.88;2.05;;;;;;;;;;10157434;28;20774;-67
2023/08/09 08:19:53;;;;;;;2.63;1.73;;;;;;;;;;10158165;28;20094;-65
2023/08/09 08:24:49;;;;;;;3.83;1.93;;;;;;;;;;10145068;28;20151;-67
2023/08/09 08:29:41;;;;;;;4.07;1.67;;;;;;;;;;10164116;28;20347;-66
2023/08/09 08:34:33;;;;;;;2.85;1.85;;;;;;;;;;10153106;28;20428;-68
2023/08/09 08:39:28;;;;;;;2.15;1.80;;;;;;;;;;10154765;28;20056;-68
2023/08/09 08:44:24;;;;;;;3.45;1.58;;;;;;;;;;10152496;28;20049;-68
2023/08/09 08:49:19;;;;;;;4.53;1.80;;;;;;;;;;10160452;28;20331;-68
2023/08/09 08:54:15;;;;;;;4.28;1.80;;;;;;;;;;10165430;28;20036;-69
2023/08/09 08:59:08;;;;;;;4.88;1.50;;;;;;;;;;10159082;28;20056;-68
2023/08/09 09:04:01;;;;;;;2.67;1.48;;;;;;;;;;10160973;28;20052;-69
2023/08/09 09:08:59;;;;;;;5.28;1.77;;;;;;;;;;10172211;28;20101;-70
2023/08/09 09:13:52;;;;;;;3.65;2.00;;;;;;;;;;10167237;28;20044;-69
2023/08/09 09:18:46;;;;;;;2.42;1.85;;;;;;;;;;10157679;28;20131;-68
2023/08/09 09:23:38;;;;;;;4.40;1.75;;;;;;;;;;10144122;28;20095;-69
2023/08/09 09:28:39;;;;;;;2.35;1.70;;;;;;;;;;10154293;28;20071;-68
2023/08/09 09:33:35;;;;;;;22.52;3.75;;;;;;;;;;10176250;28;20052;-69
2023/08/09 09:38:28;;;;;;;11.02;2.53;;;;;;;;;;10162428;28;20359;-69
2023/08/09 09:43:20;;;;;;;3.70;2.13;;;;;;;;;;10150174;28;20040;-69
2023/08/09 09:48:16;;;;;;;4.97;2.50;;;;;;;;;;10162354;28;20029;-69
2023/08/09 09:53:13;;;;;;;8.98;2.78;;;;;;;;;;10145874;28;20041;-69
2023/08/09 09:58:05;;;;;;;7.68;2.95;;;;;;;;;;10177175;28;20165;-69
2023/08/09 10:03:01;;;;;;;5.53;2.92;;;;;;;;;;10153523;28;20044;-69
2023/08/09 10:07:53;;;;;;;10.80;4.47;;;;;;;;;;10157827;28;20127;-69
2023/08/09 10:12:51;;;;;;;5.97;3.78;;;;;;;;;;10173093;28;20461;-70
2023/08/09 10:17:44;;;;;;;9.13;3.60;;;;;;;;;;10171318;28;20037;-69
2023/08/09 10:22:37;;;;;;;8.07;3.85;;;;;;;;;;10157502;28;20075;-67
2023/08/09 10:27:53;;;;;;;6.88;3.40;;;;;;;;;;10178528;28;20040;-68
2023/08/09 10:32:53;;;;;;;8.45;5.38;;;;;;;;;;10172271;28;20044;-69
2023/08/09 10:37:45;;;;;;;9.18;2.58;;;;;;;;;;10169210;28;20470;-68
2023/08/09 10:42:39;;;;;;;9.88;3.53;;;;;;;;;;10183067;28;20051;-68
2023/08/09 10:47:31;;;;;;;6.72;3.55;;;;;;;;;;10151032;28;20135;-69
2023/08/09 10:52:34;;;;;;;5.68;2.88;;;;;;;;;;10148607;28;20131;-68
2023/08/09 10:57:40;;;;;;;5.68;2.53;;;;;;;;;;10145926;28;20056;-68
2023/08/09 11:02:32;;;;;;;5.72;2.83;;;;;;;;;;10150556;28;20045;-69
2023/08/09 11:07:24;;;;;;;4.80;2.50;;;;;;;;;;10158681;28;20378;-68
2023/08/09 11:12:17;;;;;;;9.77;2.85;;;;;;;;;;10150911;28;20041;-69
2023/08/09 11:17:13;;;;;;;6.25;3.47;;;;;;;;;;10166997;28;20044;-68
2023/08/09 11:22:05;;;;;;;4.03;2.42;;;;;;;;;;10160264;28;20045;-69
2023/08/09 11:26:59;;;;;;;4.32;2.78;;;;;;;;;;10159445;28;20047;-69
2023/08/09 11:31:53;;;;;;;5.78;2.40;;;;;;;;;;10160413;28;20090;-67
2023/08/09 11:36:47;;;;;;;4.68;2.58;;;;;;;;;;10164139;28;20051;-69
2023/08/09 11:41:42;;;;;;;7.10;2.35;;;;;;;;;;10167162;28;20035;-68
2023/08/09 11:46:34;;;;;;;4.78;2.63;;;;;;;;;;10172686;28;20055;-69
2023/08/09 11:51:26;;;;;;;4.97;2.42;;;;;;;;;;10172687;28;20076;-68
2023/08/09 11:56:21;;;;;;;5.03;2.67;;;;;;;;;;10157990;28;20041;-69
2023/08/09 12:01:17;;;;;;;6.20;2.03;;;;;;;;;;10150073;28;20390;-68
2023/08/09 12:06:10;;;;;;;3.33;2.13;;;;;;;;;;10163572;28;20113;-69
2023/08/09 12:11:03;;;;;;;5.63;2.88;;;;;;;;;;10138633;28;20044;-67
2023/08/09 12:15:56;;;;;;;4.80;2.10;;;;;;;;;;10150932;28;20386;-69
2023/08/09 12:20:48;;;;;;;3.47;2.10;;;;;;;;;;10171214;28;20051;-69
2023/08/09 12:25:40;;;;;;;5.07;2.17;;;;;;;;;;10181973;28;20480;-67
2023/08/09 12:30:32;;;;;;;5.95;2.60;;;;;;;;;;10181834;28;20048;-69
2023/08/09 12:35:24;;;;;;;4.00;1.88;;;;;;;;;;10141603;28;20048;-67
2023/08/09 12:40:16;;;;;;;5.43;2.10;;;;;;;;;;10140825;28;20055;-68
2023/08/09 12:45:09;;;;;;;3.65;1.42;;;;;;;;;;10161382;28;20075;-67
2023/08/09 12:50:01;;;;;;;4.97;2.03;;;;;;;;;;10158571;28;20462;-68
2023/08/09 12:54:53;;;;;;;6.47;1.92;;;;;;;;;;10157973;28;20052;-70
2023/08/09 12:59:46;;;;;;;4.25;1.52;;;;;;;;;;10156327;28;20118;-67
2023/08/09 13:04:40;;;;;;;1.90;1.38;;;;;;;;;;10138804;28;20052;-67
2023/08/09 13:09:32;;;;;;;2.08;1.60;;;;;;;;;;10161202;28;20040;-69
2023/08/09 13:14:24;;;;;;;3.85;1.50;;;;;;;;;;10150306;28;20036;-69
2023/08/09 13:19:16;;;;;;;3.30;1.58;;;;;;;;;;10153071;28;20047;-68
2023/08/09 13:24:08;;;;;;;2.50;1.45;;;;;;;;;;10148743;28;20071;-68
2023/08/09 13:29:00;;;;;;;2.70;2.10;;;;;;;;;;10157603;28;20262;-66
2023/08/09 13:33:52;;;;;;;1.95;1.50;;;;;;;;;;10154716;28;20382;-68
2023/08/09 13:38:44;;;;;;;2.72;1.42;;;;;;;;;;10184686;28;20078;-68
2023/08/09 13:43:36;;;;;;;4.22;1.85;;;;;;;;;;10176367;28;20454;-67
2023/08/09 13:48:28;;;;;;;2.28;1.73;;;;;;;;;;10163679;28;20296;-68
2023/08/09 13:53:20;;;;;;;3.00;1.30;;;;;;;;;;10154211;28;20052;-68
2023/08/09 13:58:13;;;;;;;5.53;1.73;;;;;;;;;;10151298;28;20045;-67
2023/08/09 14:03:06;;;;;;;4.35;1.20;;;;;;;;;;10172758;28;20048;-68
2023/08/09 14:07:58;;;;;;;6.55;1.50;;;;;;;;;;10164305;28;20058;-67
2023/08/09 14:12:50;;;;;;;5.78;1.70;;;;;;;;;;10147978;28;20052;-69
2023/08/09 14:17:42;;;;;;;9.20;1.70;;;;;;;;;;10158179;28;20094;-68
2023/08/09 14:22:34;;;;;;;2.58;1.75;;;;;;;;;;10164223;28;20041;-68
2023/08/09 14:27:26;;;;;;;1.80;1.23;;;;;;;;;;10185148;28;20048;-69
2023/08/09 14:32:19;;;;;;;4.22;1.60;;;;;;;;;;10169791;28;20405;-68
2023/08/09 14:37:10;;;;;;;5.53;1.10;;;;;;;;;;10156052;28;20523;-68
2023/08/09 14:42:04;;;;;;;2.75;1.42;;;;;;;;;;10180148;28;20493;-70
2023/08/09 14:46:56;;;;;;;6.35;1.38;;;;;;;;;;10162531;28;20041;-69
2023/08/09 14:51:48;;;;;;;1.52;1.08;;;;;;;;;;10163925;28;20045;-71
2023/08/09 14:56:40;;;;;;;3.78;1.50;;;;;;;;;;10147612;28;20101;-68
2023/08/09 15:01:32;;;;;;;3.38;1.48;;;;;;;;;;10151349;28;20404;-70
2023/08/09 15:06:24;;;;;;;2.97;1.77;;;;;;;;;;10173617;28;20068;-71
2023/08/09 15:11:16;;;;;;;4.43;1.58;;;;;;;;;;10157060;28;20057;-70
2023/08/09 15:16:09;;;;;;;5.18;1.33;;;;;;;;;;10161158;28;20110;-71
2023/08/09 15:21:01;;;;;;;6.38;2.30;;;;;;;;;;10146479;28;20094;-70
2023/08/09 15:25:53;;;;;;;3.13;1.38;;;;;;;;;;10144878;28;20044;-67
2023/08/09 15:30:45;;;;;;;2.78;1.20;;;;;;;;;;10179191;28;20052;-68
2023/08/09 15:35:37;;;;;;;6.82;1.83;;;;;;;;;;10164211;28;20040;-69
2023/08/09 15:40:29;;;;;;;2.22;0.98;;;;;;;;;;10165986;28;20125;-69
2023/08/09 15:45:21;;;;;;;6.30;1.60;;;;;;;;;;10146495;28;20036;-65
2023/08/09 15:50:14;;;;;;;5.68;1.58;;;;;;;;;;10168008;28;20127;-67
2023/08/09 15:55:07;;;;;;;3.90;1.35;;;;;;;;;;10143817;28;20044;-71
2023/08/09 15:59:59;;;;;;;2.30;1.48;;;;;;;;;;10159324;28;20056;-71
2023/08/09 16:04:51;;;;;;;2.90;1.20;;;;;;;;;;10163013;28;20048;-71
2023/08/09 16:09:45;;;;;;;1.63;1.02;;;;;;;;;;10139643;28;20589;-70
2023/08/09 16:14:38;;;;;;;7.63;1.38;;;;;;;;;;10151481;28;20146;-69
2023/08/09 16:19:31;;;;;;;1.40;1.27;;;;;;;;;;10171074;28;20036;-70
2023/08/09 16:24:23;;;;;;;4.13;1.42;;;;;;;;;;10138433;28;20048;-71
2023/08/09 16:29:15;;;;;;;2.25;1.10;;;;;;;;;;10138247;28;20377;-70
2023/08/09 16:34:07;;;;;;;2.60;1.33;;;;;;;;;;10139386;28;20044;-70
2023/08/09 16:38:59;;;;;;;4.63;1.63;;;;;;;;;;10142315;28;20055;-68
2023/08/09 16:43:54;;;;;;;7.15;1.20;;;;;;;;;;10143051;28;20433;-67
2023/08/09 16:48:49;;;;;;;6.53;1.77;;;;;;;;;;10141532;28;20084;-69
2023/08/09 16:53:41;;;;;;;4.53;1.58;;;;;;;;;;10141770;28;20044;-68
2023/08/09 16:58:32;;;;;;;3.45;1.10;;;;;;;;;;10146454;28;20048;-68
2023/08/09 17:03:25;;;;;;;3.47;1.33;;;;;;;;;;10162884;28;20048;-68
2023/08/09 17:08:17;;;;;;;2.75;1.35;;;;;;;;;;10149114;28;20075;-69
2023/08/09 17:13:10;;;;;;;7.75;1.80;;;;;;;;;;10147491;28;20170;-68
2023/08/09 17:18:02;;;;;;;3.15;1.63;;;;;;;;;;10146501;28;20127;-67
2023/08/09 17:22:54;;;;;;;3.67;1.75;;;;;;;;;;10165786;28;20044;-68
2023/08/09 17:27:46;;;;;;;1.92;1.08;;;;;;;;;;10176358;28;20045;-68
2023/08/09 17:32:38;;;;;;;4.65;1.40;;;;;;;;;;10153793;28;20126;-67
2023/08/09 17:37:31;;;;;;;1.92;1.40;;;;;;;;;;10175631;28;20036;-69
2023/08/09 17:42:23;;;;;;;4.10;1.52;;;;;;;;;;10167018;28;20036;-67
2023/08/09 17:47:15;;;;;;;2.90;1.50;;;;;;;;;;10168325;28;20044;-67
2023/08/09 17:52:07;;;;;;;4.03;1.30;;;;;;;;;;10149531;28;20043;-68
2023/08/09 17:56:59;;;;;;;1.42;1.15;;;;;;;;;;10159571;28;20626;-68
2023/08/09 18:01:52;;;;;;;3.47;1.73;;;;;;;;;;10148546;28;20448;-68
2023/08/09 18:06:44;;;;;;;1.73;1.40;;;;;;;;;;10171710;28;20047;-68
2023/08/09 18:11:38;;;;;;;5.07;1.88;;;;;;;;;;10159073;28;20065;-65
2023/08/09 18:16:30;;;;;;;1.90;1.25;;;;;;;;;;10152796;28;20051;-67
2023/08/09 18:21:24;;;;;;;2.72;1.42;;;;;;;;;;10152871;28;20044;-68
2023/08/09 18:26:16;;;;;;;3.05;1.73;;;;;;;;;;10160209;28;20102;-68
2023/08/09 18:31:09;;;;;;;5.22;2.05;;;;;;;;;;10173314;28;20126;-68
2023/08/09 18:36:02;;;;;;;2.40;1.35;;;;;;;;;;10153388;28;20436;-68
2023/08/09 18:40:55;;;;;;;3.58;1.63;;;;;;;;;;10172394;28;20059;-67
2023/08/09 18:45:46;;;;;;;2.42;1.92;;;;;;;;;;10174441;28;20090;-68
2023/08/09 18:50:41;;;;;;;2.35;1.77;;;;;;;;;;10161464;28;20131;-68
2023/08/09 18:55:33;;;;;;;4.18;2.20;;;;;;;;;;10173612;28;20037;-67
2023/08/09 19:00:25;;;;;;;11.40;1.95;;;;;;;;;;10172703;28;20057;-69
2023/08/09 19:05:18;;;;;;;1.83;1.63;;;;;;;;;;10157861;28;20475;-67
2023/08/09 19:10:12;;;;;;;6.28;1.55;;;;;;;;;;10148810;28;20041;-68
2023/08/09 19:15:05;;;;;;;2.90;1.77;;;;;;;;;;10141917;28;20047;-68
2023/08/09 19:19:57;;;;;;;3.92;1.60;;;;;;;;;;10147527;28;20072;-68
2023/08/09 19:24:50;;;;;;;2.10;1.55;;;;;;;;;;10145564;28;20076;-68
2023/08/09 19:29:42;;;;;;;6.25;1.75;;;;;;;;;;10144884;28;20048;-68
2023/08/09 19:34:35;;;;;;;5.82;1.98;;;;;;;;;;10156670;28;20458;-69
2023/08/09 19:39:27;;;;;;;2.90;2.20;;;;;;;;;;10173850;28;20046;-67
2023/08/09 19:44:19;;;;;;;3.25;2.47;;;;;;;;;;10161098;28;20040;-70
2023/08/09 19:49:11;;;;;;;4.55;1.85;;;;;;;;;;10146313;28;20048;-68
2023/08/09 19:54:03;;;;;;;4.15;1.67;;;;;;;;;;10154413;28;20079;-68
2023/08/09 19:58:55;;;;;;;7.07;1.75;;;;;;;;;;10176599;28;20066;-69
2023/08/09 20:03:47;;;;;;;5.97;2.03;;;;;;;;;;10163735;28;20055;-69
2023/08/09 20:08:40;;;;;;;4.65;2.53;;;;;;;;;;10162081;28;20135;-68
2023/08/09 20:13:32;;;;;;;2.35;1.83;;;;;;;;;;10184820;28;20063;-68
2023/08/09 20:18:25;;;;;;;2.78;2.05;;;;;;;;;;10188148;28;20135;-69
2023/08/09 20:23:18;;;;;;;5.32;2.55;;;;;;;;;;10189357;28;20131;-69
2023/08/09 20:28:10;;;;;;;3.10;1.90;;;;;;;;;;10186273;28;20071;-69
2023/08/09 20:33:04;;;;;;;4.55;1.90;;;;;;;;;;10154612;28;20463;-66
2023/08/09 20:37:56;;;;;;;2.85;1.90;;;;;;;;;;10172529;28;20474;-68
2023/08/09 20:42:48;;;;;;;18.27;2.42;;;;;;;;;;10151174;28;20040;-68
2023/08/09 20:47:40;;;;;;;2.40;1.70;;;;;;;;;;10171300;28;20127;-68
2023/08/09 20:52:32;;;;;;;2.55;1.80;;;;;;;;;;10154797;28;20378;-68
2023/08/09 20:57:24;;;;;;;3.47;2.03;;;;;;;;;;10153081;28;20063;-68
2023/08/09 21:02:16;;;;;;;3.35;1.90;;;;;;;;;;10152143;28;20036;-68
2023/08/09 21:07:09;;;;;;;3.88;2.20;;;;;;;;;;10158179;28;20059;-67
2023/08/09 21:12:01;;;;;;;3.03;1.90;;;;;;;;;;10153351;28;20033;-69
2023/08/09 21:16:53;;;;;;;2.97;1.83;;;;;;;;;;10170255;28;20048;-68
2023/08/09 21:21:46;;;;;;;3.08;1.73;;;;;;;;;;10173641;28;20106;-69
2023/08/09 21:26:38;;;;;;;4.25;1.90;;;;;;;;;;10167419;28;20795;-68
2023/08/09 21:31:30;;;;;;;7.97;1.88;;;;;;;;;;10157418;28;20063;-68
2023/08/09 21:36:23;;;;;;;6.40;2.25;;;;;;;;;;10152628;28;20102;-70
2023/08/09 21:41:14;;;;;;;5.60;1.98;;;;;;;;;;10159415;28;20382;-68
2023/08/09 21:46:06;;;;;;;4.43;1.80;;;;;;;;;;10160059;28;20412;-67
2023/08/09 21:51:00;;;;;;;2.38;1.60;;;;;;;;;;10175664;28;20044;-68
2023/08/09 21:55:53;;;;;;;4.47;2.05;;;;;;;;;;10157541;28;20048;-67
2023/08/09 22:00:45;;;;;;;3.35;1.75;;;;;;;;;;10148376;28;20048;-69
2023/08/09 22:05:37;;;;;;;2.33;1.90;;;;;;;;;;10148217;28;20109;-68
2023/08/09 22:10:29;;;;;;;3.70;2.47;;;;;;;;;;10168720;28;20139;-68
2023/08/09 22:15:21;;;;;;;2.42;1.73;;;;;;;;;;10160688;28;20161;-69
2023/08/09 22:20:14;;;;;;;4.97;1.85;;;;;;;;;;10163435;28;20066;-69
2023/08/09 22:25:08;;;;;;;5.45;1.90;;;;;;;;;;10161923;28;20045;-68
2023/08/09 22:30:00;;;;;;;3.90;2.00;;;;;;;;;;10157543;28;20047;-68
2023/08/09 22:34:51;;;;;;;3.42;1.92;;;;;;;;;;10152700;28;20052;-68
2023/08/09 22:39:44;;;;;;;1.92;1.73;;;;;;;;;;10149886;28;20040;-69
2023/08/09 22:44:35;;;;;;;4.75;1.90;;;;;;;;;;10142737;28;20087;-69
2023/08/09 22:49:28;;;;;;;10.20;2.63;;;;;;;;;;10142280;28;20403;-66
2023/08/09 22:54:19;;;;;;;5.60;1.90;;;;;;;;;;10146068;28;20041;-67
2023/08/09 22:59:11;;;;;;;2.70;2.30;;;;;;;;;;10148405;28;20083;-67
2023/08/09 23:04:03;;;;;;;3.70;1.92;;;;;;;;;;10146671;28;20455;-69
2023/08/09 23:08:55;;;;;;;4.00;2.42;;;;;;;;;;10165035;28;20039;-68
2023/08/09 23:13:47;;;;;;;4.03;1.92;;;;;;;;;;10149831;28;20135;-67
2023/08/09 23:18:39;;;;;;;5.13;1.80;;;;;;;;;;10156540;28;20063;-67
2023/08/09 23:23:31;;;;;;;4.88;2.70;;;;;;;;;;10178685;28;20044;-65
2023/08/09 23:28:23;;;;;;;4.97;2.08;;;;;;;;;;10164363;28;20113;-67
2023/08/09 23:33:15;;;;;;;5.30;1.52;;;;;;;;;;10185699;28;20039;-67
2023/08/09 23:38:07;;;;;;;7.50;1.70;;;;;;;;;;10166633;28;20071;-68
2023/08/09 23:42:58;;;;;;;3.45;2.00;;;;;;;;;;10173548;28;20060;-67
2023/08/09 23:47:51;;;;;;;5.13;2.85;;;;;;;;;;10162027;28;20049;-68
2023/08/09 23:52:43;;;;;;;3.75;1.88;;;;;;;;;;10140858;28;20048;-68
2023/08/09 23:57:35;;;;;;;7.15;1.98;;;;;;;;;;10149937;28;20817;-68
